createdAt,value
2022-12-13T00:08:32.510Z,-4.2
2022-12-13T00:23:07.291Z,-4.5
2022-12-13T00:37:37.385Z,-4.3
2022-12-13T00:52:12.730Z,-4.4
2022-12-13T01:06:44.886Z,-3.9
2022-12-13T01:21:17.666Z,-3.9
2022-12-13T01:35:51.223Z,-4.1
2022-12-13T01:50:22.634Z,-4.1
2022-12-13T02:04:55.130Z,-4.1
2022-12-13T02:19:27.924Z,-4.6
2022-12-13T02:33:58.449Z,-4.7
2022-12-13T02:48:32.010Z,-4.5
2022-12-13T03:03:06.166Z,-4.6
2022-12-13T03:17:36.874Z,-4.7
2022-12-13T03:32:11.488Z,-4.7
2022-12-13T03:46:42.939Z,-4.8
2022-12-13T04:01:14.842Z,-5.1
2022-12-13T04:15:45.884Z,-5.4
2022-12-13T04:30:17.503Z,-5.2
2022-12-13T04:44:50.712Z,-5.1
2022-12-13T04:59:23.514Z,-5.5
2022-12-13T05:13:55.830Z,-5.2
2022-12-13T05:28:29.224Z,-5.1
2022-12-13T05:43:01.912Z,-5.4
2022-12-13T05:57:33.031Z,-5.3
2022-12-13T06:12:05.467Z,-5.6
2022-12-13T06:26:53.006Z,-5.7
2022-12-13T06:41:29.016Z,-5.7
2022-12-13T06:55:58.065Z,-5.9
2022-12-13T07:10:30.904Z,-5.8
2022-12-13T07:25:03.166Z,-6.1
2022-12-13T07:39:35.029Z,-6.4
2022-12-13T07:54:07.312Z,-6.1
2022-12-13T08:08:42.685Z,-5.9
2022-12-13T08:23:14.233Z,-5.5
2022-12-13T08:37:48.353Z,-5.1
2022-12-13T08:52:21.285Z,-4.7
2022-12-13T09:06:55.856Z,-4
2022-12-13T09:21:37.557Z,-1.8
2022-12-13T09:36:12.608Z,-2.3
2022-12-13T09:50:42.563Z,-3.1
2022-12-13T10:05:50.141Z,-2.9
2022-12-13T10:20:23.569Z,-2.9
2022-12-13T10:34:56.199Z,-2.7
2022-12-13T10:49:29.631Z,-2.4
2022-12-13T11:04:03.693Z,-2
2022-12-13T11:18:39.506Z,-1.7
2022-12-13T11:33:11.244Z,-1.6
2022-12-13T11:47:43.412Z,-1.3
2022-12-13T12:02:17.919Z,-1
2022-12-13T12:16:49.676Z,-0.7
2022-12-13T12:31:23.332Z,-0.5
2022-12-13T12:45:57.432Z,-0.4
2022-12-13T13:00:32.317Z,-0.1
2022-12-13T13:15:03.882Z,-0.1
2022-12-13T13:29:37.366Z,-0.1
2022-12-13T13:44:11.229Z,-0.1
2022-12-13T13:58:48.226Z,-0.1
2022-12-13T14:13:19.135Z,-0.2
2022-12-13T14:27:51.844Z,-0.3
2022-12-13T14:42:23.794Z,-0.4
2022-12-13T14:56:55.030Z,-0.6
2022-12-13T15:11:27.092Z,-0.8
2022-12-13T15:26:01.316Z,-0.9
2022-12-13T15:40:35.350Z,-1.2
2022-12-13T15:55:05.221Z,-1.4
2022-12-13T16:09:39.849Z,-1.2
2022-12-13T16:24:13.485Z,-1.2
2022-12-13T16:38:43.699Z,-1.4
2022-12-13T16:53:17.540Z,-1.4
2022-12-13T17:07:51.543Z,-1.3
2022-12-13T17:22:24.299Z,-1.4
2022-12-13T17:36:56.108Z,-1.5
2022-12-13T17:51:28.152Z,-1.5
2022-12-13T18:06:00.563Z,-1.6
2022-12-13T18:20:32.768Z,-1.7
2022-12-13T18:35:06.751Z,-1.7
2022-12-13T18:49:38.314Z,-1.9
2022-12-13T19:04:10.577Z,-1.9
2022-12-13T19:18:42.523Z,-2
2022-12-13T19:33:14.461Z,-2
2022-12-13T19:47:46.654Z,-2.1
2022-12-13T20:02:22.367Z,-2.1
2022-12-13T20:16:54.713Z,-2.1
2022-12-13T20:31:25.470Z,-2.2
2022-12-13T20:45:57.256Z,-2.1
2022-12-13T21:00:29.762Z,-2.2
2022-12-13T21:15:03.287Z,-2.4
2022-12-13T21:29:35.535Z,-2.2
2022-12-13T21:44:08.097Z,-2.2
2022-12-13T21:58:39.976Z,-2.3
2022-12-13T22:13:13.987Z,-2.3
2022-12-13T22:27:44.070Z,-2.2
2022-12-13T22:42:16.356Z,-2.3
2022-12-13T22:56:46.869Z,-2.3
2022-12-13T23:11:20.701Z,-2.2
2022-12-13T23:25:55.494Z,-2
2022-12-13T23:40:26.418Z,-2.2
2022-12-13T23:54:59.046Z,-2.2
